Time;durP1;ratioP1;P1;durP2;ratioP2;P2;SDS_P1;SDS_P2;PMS_P1;PMS_P2;Temp;Humidity;BMP_temperature;BMP_pressure;BME280_temperature;BME280_humidity;BME280_pressure;Samples;Min_cycle;Max_cycle;Signal;HPM_P1;HPM_P2
2022/03/09 00:01:38;;;;;;;19.97;8.03;;;;;;;5.18;36.98;101006.13;5381378;32;34464;-74
2022/03/09 00:04:40;;;;;;;20.33;9.17;;;;;;;4.23;39.16;101009.22;5390471;32;44558;-75
2022/03/09 00:07:42;;;;;;;20.77;8.90;;;;;;;3.97;39.98;101021.44;5359534;32;35276;-73
2022/03/09 00:10:44;;;;;;;18.60;9.60;;;;;;;4.13;40.11;101017.94;5366030;32;34513;-64
2022/03/09 00:13:47;;;;;;;23.20;9.90;;;;;;;4.19;40.07;101015.31;5390214;32;34721;-64
2022/03/09 00:16:50;;;;;;;22.07;10.70;;;;;;;4.84;39.09;101019.38;5367845;32;32637;-72
2022/03/09 00:19:52;;;;;;;21.50;10.85;;;;;;;4.16;40.71;101023.13;5383241;32;34549;-72
2022/03/09 00:22:55;;;;;;;26.33;11.00;;;;;;;4.21;41.08;101020.50;5351714;32;34612;-74
2022/03/09 00:25:57;;;;;;;22.37;11.00;;;;;;;3.95;41.83;101023.19;5372720;32;34154;-70
2022/03/09 00:28:59;;;;;;;27.43;12.57;;;;;;;3.60;43.00;101024.06;5374929;32;34732;-71
2022/03/09 00:32:02;;;;;;;28.07;12.80;;;;;;;3.50;43.12;101032.75;5362773;32;34516;-64
2022/03/09 00:35:08;;;;;;;31.03;13.30;;;;;;;3.43;43.40;101029.28;5383056;32;34181;-64
2022/03/09 00:38:10;;;;;;;27.10;13.02;;;;;;;3.25;43.36;101035.31;5369273;32;44073;-73
2022/03/09 00:41:14;;;;;;;29.00;12.80;;;;;;;3.34;43.62;101023.19;5371210;32;34819;-74
2022/03/09 00:44:16;;;;;;;26.75;12.40;;;;;;;4.23;41.50;101017.03;5361021;32;35072;-74
2022/03/09 00:47:18;;;;;;;30.17;13.77;;;;;;;4.48;39.58;101019.53;5379618;32;34806;-64
2022/03/09 00:50:20;;;;;;;27.93;12.43;;;;;;;3.32;41.89;101014.53;5395131;32;34657;-63
2022/03/09 00:53:22;;;;;;;25.77;13.43;;;;;;;4.28;39.59;101022.22;5353147;32;35185;-73
2022/03/09 00:56:25;;;;;;;32.47;13.67;;;;;;;4.29;39.41;101013.53;5375590;32;34583;-65
2022/03/09 00:59:27;;;;;;;28.10;13.67;;;;;;;3.07;42.46;101011.06;5382683;32;34720;-72
2022/03/09 01:02:29;;;;;;;30.10;14.33;;;;;;;3.20;42.74;101013.66;5373829;32;34571;-71
2022/03/09 01:05:31;;;;;;;30.67;14.27;;;;;;;3.54;42.02;101003.28;5387808;32;34954;-65
2022/03/09 01:08:33;;;;;;;29.57;14.23;;;;;;;2.88;43.11;100997.16;5366920;32;35210;-74
2022/03/09 01:11:37;;;;;;;32.50;14.00;;;;;;;3.36;42.86;100995.50;5387687;32;34977;-74
2022/03/09 01:14:39;;;;;;;28.55;13.07;;;;;;;3.21;43.44;100997.22;5360602;32;35753;-64
2022/03/09 01:17:41;;;;;;;29.90;14.23;;;;;;;2.65;44.91;101005.78;5396549;32;45279;-64
2022/03/09 01:20:43;;;;;;;26.93;14.07;;;;;;;2.90;44.72;101011.03;5383951;32;34504;-64
2022/03/09 01:23:45;;;;;;;28.07;14.07;;;;;;;2.86;44.96;100999.78;5388489;32;34980;-72
2022/03/09 01:26:48;;;;;;;29.13;14.70;;;;;;;2.79;45.65;101002.34;5378596;32;35112;-71
2022/03/09 01:29:50;;;;;;;29.67;15.40;;;;;;;2.89;45.47;101004.94;5383885;32;35760;-64
2022/03/09 01:32:52;;;;;;;27.00;13.73;;;;;;;2.55;46.74;100992.75;5396587;32;34820;-74
2022/03/09 01:35:54;;;;;;;29.37;14.37;;;;;;;2.65;46.57;101008.38;5368528;32;35559;-74
2022/03/09 01:38:56;;;;;;;31.83;15.33;;;;;;;2.56;47.04;101015.25;5376224;32;34798;-65
2022/03/09 01:41:58;;;;;;;30.93;14.80;;;;;;;2.51;46.73;101020.41;5355306;32;35175;-64
2022/03/09 01:45:03;;;;;;;33.10;15.30;;;;;;;2.12;47.85;101024.56;5394563;32;35349;-73
2022/03/09 01:48:05;;;;;;;28.80;14.50;;;;;;;2.02;48.02;101027.97;5387676;32;34770;-64
2022/03/09 01:51:08;;;;;;;30.13;13.97;;;;;;;2.50;46.63;101026.47;5365067;32;34477;-71
2022/03/09 01:54:10;;;;;;;27.10;13.50;;;;;;;2.58;46.55;101027.37;5390274;32;32943;-64
2022/03/09 01:57:12;;;;;;;28.93;14.30;;;;;;;2.48;46.53;101030.78;5380462;32;34185;-63
2022/03/09 02:00:15;;;;;;;28.77;13.43;;;;;;;2.81;45.48;101017.06;5397671;32;35468;-74
2022/03/09 02:03:17;;;;;;;30.63;12.83;;;;;;;2.55;45.67;101024.75;5381971;32;35377;-64
2022/03/09 02:06:20;;;;;;;22.50;10.93;;;;;;;3.22;42.81;101017.16;5374319;32;35877;-64
2022/03/09 02:12:43;;;;;;;25.00;11.23;;;;;;;3.20;42.41;101021.47;5352290;32;44405;-63
2022/03/09 02:15:45;;;;;;;26.63;11.47;;;;;;;2.65;43.46;101013.56;5396666;32;35455;-72
2022/03/09 02:18:47;;;;;;;24.30;10.83;;;;;;;3.32;41.71;101020.59;5387378;32;34573;-64
2022/03/09 02:21:53;;;;;;;25.17;12.07;;;;;;;2.66;43.14;101023.09;5386864;32;35045;-65
2022/03/09 02:24:55;;;;;;;21.73;11.33;;;;;;;2.80;42.94;101014.47;5370901;32;35532;-64
2022/03/09 02:28:00;;;;;;;26.07;10.87;;;;;;;2.07;44.41;101031.47;5381089;32;35139;-71
2022/03/09 02:31:02;;;;;;;25.97;10.47;;;;;;;2.54;43.62;101032.56;5368723;32;34953;-74
2022/03/09 02:34:05;;;;;;;23.67;10.93;;;;;;;3.32;41.82;101027.53;5372770;32;34932;-64
2022/03/09 02:37:07;;;;;;;25.13;11.20;;;;;;;2.99;42.22;101022.31;5392410;32;35369;-71
2022/03/09 02:40:11;;;;;;;23.80;11.47;;;;;;;2.51;43.65;101025.59;5358324;32;33987;-73
2022/03/09 02:43:13;;;;;;;26.40;10.77;;;;;;;4.15;40.17;101017.94;5384399;32;34979;-64
2022/03/09 02:46:16;;;;;;;24.23;10.77;;;;;;;4.26;39.65;101016.16;5381853;32;34799;-65
2022/03/09 02:49:18;;;;;;;23.30;11.37;;;;;;;3.76;40.54;101015.41;5384561;32;35261;-64
2022/03/09 02:52:20;;;;;;;24.47;10.50;;;;;;;4.05;40.09;101022.28;5393409;32;35085;-73
2022/03/09 02:55:22;;;;;;;26.60;11.67;;;;;;;3.58;40.79;101019.75;5361971;32;34085;-64
2022/03/09 02:58:25;;;;;;;21.13;10.07;;;;;;;3.80;40.71;101014.53;5381295;32;34641;-73
2022/03/09 03:01:28;;;;;;;23.37;10.37;;;;;;;3.97;40.00;101006.69;5381868;32;34814;-73
2022/03/09 03:04:30;;;;;;;24.93;10.90;;;;;;;4.00;40.09;100995.44;5391024;32;33959;-64
2022/03/09 03:07:32;;;;;;;22.73;11.00;;;;;;;3.62;41.04;101000.69;5357206;32;34749;-74
2022/03/09 03:10:34;;;;;;;21.53;10.73;;;;;;;2.91;42.50;100998.06;5378522;32;35102;-63
2022/03/09 03:13:39;;;;;;;24.23;10.87;;;;;;;2.84;42.81;100993.72;5381212;32;34651;-74
2022/03/09 03:16:41;;;;;;;25.77;11.27;;;;;;;2.74;43.62;101001.47;5369862;32;44704;-64
2022/03/09 03:19:43;;;;;;;24.30;12.07;;;;;;;3.14;42.91;100997.22;5370295;32;35648;-73
2022/03/09 03:22:45;;;;;;;23.37;11.73;;;;;;;2.57;44.69;101007.47;5368138;32;34750;-63
2022/03/09 03:25:48;;;;;;;22.20;11.43;;;;;;;2.66;44.53;101002.31;5366023;32;34483;-65
2022/03/09 03:28:51;;;;;;;30.20;11.57;;;;;;;3.32;42.87;101004.16;5384058;32;34063;-70
2022/03/09 03:31:54;;;;;;;26.80;10.95;;;;;;;2.82;43.72;101005.81;5378154;32;35502;-74
2022/03/09 03:34:56;;;;;;;32.10;12.67;;;;;;;2.47;45.09;101013.50;5391290;32;34303;-75
2022/03/09 03:37:58;;;;;;;26.33;13.00;;;;;;;2.40;45.51;101009.16;5369808;32;34993;-71
2022/03/09 03:41:00;;;;;;;28.17;12.13;;;;;;;2.42;45.58;101013.47;5370360;32;35281;-63
2022/03/09 03:44:03;;;;;;;24.77;12.23;;;;;;;3.30;43.49;101009.34;5380953;32;35000;-74
2022/03/09 03:47:06;;;;;;;26.50;12.27;;;;;;;3.09;44.21;101015.41;5389980;32;34901;-74
2022/03/09 03:50:09;;;;;;;31.83;12.37;;;;;;;3.32;44.00;101005.03;5364261;32;35601;-64
2022/03/09 03:53:11;;;;;;;24.98;12.37;;;;;;;4.50;40.80;101005.63;5382196;32;45291;-64
2022/03/09 03:56:13;;;;;;;23.67;11.90;;;;;;;3.58;42.57;101006.75;5365956;32;34840;-75
2022/03/09 03:59:15;;;;;;;33.87;14.47;;;;;;;3.50;43.34;101009.34;5382739;32;36564;-64
2022/03/09 04:02:17;;;;;;;23.77;11.57;;;;;;;3.09;44.38;101010.22;5390876;32;34601;-74
2022/03/09 04:05:20;;;;;;;25.77;11.67;;;;;;;3.39;43.60;101008.47;5387044;32;34799;-72
2022/03/09 04:08:22;;;;;;;26.27;12.40;;;;;;;3.25;44.56;101011.94;5380316;32;35665;-73
2022/03/09 04:11:24;;;;;;;27.73;12.97;;;;;;;2.83;45.49;101004.94;5378783;32;35410;-64
2022/03/09 04:14:26;;;;;;;40.97;18.50;;;;;;;3.09;44.99;100999.81;5384229;32;34101;-64
2022/03/09 04:17:28;;;;;;;34.67;18.07;;;;;;;2.50;46.77;100999.66;5398826;32;34650;-73
2022/03/09 04:20:31;;;;;;;31.63;17.07;;;;;;;2.45;46.92;100989.28;5384212;32;32676;-64
2022/03/09 04:23:33;;;;;;;35.73;16.67;;;;;;;2.30;47.43;101005.63;5379090;32;34597;-74
2022/03/09 04:26:39;;;;;;;30.17;15.50;;;;;;;2.29;47.48;101006.50;5365815;32;34992;-73
2022/03/09 04:29:41;;;;;;;33.40;15.83;;;;;;;2.09;48.28;101013.31;5387933;32;34212;-74
2022/03/09 04:32:44;;;;;;;30.53;16.63;;;;;;;2.54;47.11;101009.19;5371092;32;35490;-75
2022/03/09 04:35:48;;;;;;;29.73;14.83;;;;;;;2.64;46.92;101005.75;5384759;32;34765;-64
2022/03/09 04:38:51;;;;;;;30.93;14.03;;;;;;;4.22;43.04;100997.09;5390124;32;34859;-64
2022/03/09 04:41:53;;;;;;;29.77;14.70;;;;;;;2.94;45.13;100985.06;5343394;32;34826;-63
2022/03/09 04:44:55;;;;;;;37.43;15.00;;;;;;;2.41;46.75;101003.97;5392154;32;36793;-72
2022/03/09 04:47:57;;;;;;;30.93;15.47;;;;;;;2.58;46.80;101006.63;5374185;32;35558;-63
2022/03/09 04:51:02;;;;;;;30.83;14.67;;;;;;;2.56;47.49;101003.13;5385767;32;34044;-73
2022/03/09 04:54:04;;;;;;;30.87;15.00;;;;;;;2.96;46.39;101017.13;5388940;32;34596;-64
2022/03/09 04:57:06;;;;;;;32.93;14.07;;;;;;;2.55;47.75;101014.38;5377577;32;35089;-74
2022/03/09 05:00:09;;;;;;;29.80;14.93;;;;;;;3.37;46.08;101003.28;5381134;32;34160;-71
2022/03/09 05:03:11;;;;;;;34.90;15.37;;;;;;;4.24;43.47;100994.47;5385854;32;44703;-64
2022/03/09 05:06:14;;;;;;;32.47;13.90;;;;;;;2.90;46.04;100992.87;5389410;32;35235;-64
2022/03/09 05:09:16;;;;;;;27.77;13.57;;;;;;;2.71;46.55;100990.22;5380801;32;34762;-74
2022/03/09 05:12:19;;;;;;;28.97;13.03;;;;;;;2.76;46.70;100995.41;5363363;32;34389;-70
2022/03/09 05:15:21;;;;;;;30.97;14.03;;;;;;;3.01;46.12;100992.87;5379818;32;35692;-73
2022/03/09 05:18:25;;;;;;;34.20;14.63;;;;;;;3.28;45.84;100998.06;5341909;32;34151;-64
2022/03/09 05:21:27;;;;;;;34.90;15.27;;;;;;;3.85;44.14;100990.25;5374395;32;34427;-74
2022/03/09 05:24:30;;;;;;;32.90;13.50;;;;;;;4.33;43.51;100991.84;5369959;32;34902;-71
2022/03/09 05:27:32;;;;;;;24.30;12.60;;;;;;;4.18;43.61;100994.50;5360493;32;34465;-73
2022/03/09 05:30:34;;;;;;;28.03;13.67;;;;;;;3.36;45.43;100991.16;5385495;32;35036;-74
2022/03/09 05:33:36;;;;;;;33.90;14.10;;;;;;;3.60;45.81;100994.59;5363942;32;34531;-75
2022/03/09 05:36:39;;;;;;;27.40;12.60;;;;;;;4.21;43.64;100990.16;5389414;32;34619;-74
2022/03/09 05:39:41;;;;;;;27.93;13.47;;;;;;;3.84;44.12;100988.50;5358791;32;45194;-64
2022/03/09 05:42:44;;;;;;;25.27;12.67;;;;;;;3.63;44.68;100992.03;5375491;32;34760;-65
2022/03/09 05:45:53;;;;;;;25.10;12.00;;;;;;;3.94;44.13;100998.03;5382939;32;34482;-67
2022/03/09 05:48:55;;;;;;;32.07;13.53;;;;;;;3.36;45.28;101014.56;5368205;32;35006;-64
2022/03/09 05:52:00;;;;;;;26.30;12.70;;;;;;;3.54;45.47;101018.88;5383217;32;35251;-73
2022/03/09 05:55:03;;;;;;;32.33;13.50;;;;;;;3.99;44.71;101043.09;5382849;32;34714;-64
2022/03/09 05:58:05;;;;;;;30.33;13.90;;;;;;;3.66;46.13;101046.59;5389782;32;34240;-64
2022/03/09 06:01:07;;;;;;;32.67;15.70;;;;;;;3.72;44.84;101063.06;5378958;32;34963;-74
2022/03/09 06:04:09;;;;;;;36.77;14.43;;;;;;;3.08;46.54;101044.81;5377839;32;37966;-64
2022/03/09 06:07:11;;;;;;;27.80;13.77;;;;;;;3.75;45.27;101052.69;5377273;32;35133;-64
2022/03/09 06:10:14;;;;;;;31.33;15.07;;;;;;;4.52;43.96;101049.91;5383608;32;34590;-65
2022/03/09 06:13:16;;;;;;;26.33;12.83;;;;;;;4.21;44.37;101051.72;5366394;32;35611;-63
2022/03/09 06:16:18;;;;;;;25.87;12.47;;;;;;;5.30;40.93;101046.87;5356174;32;35919;-64
2022/03/09 06:19:20;;;;;;;25.97;12.43;;;;;;;3.88;43.49;101053.53;5390225;32;35846;-71
2022/03/09 06:22:22;;;;;;;35.50;13.57;;;;;;;3.40;44.85;101060.44;5383041;32;34645;-75
2022/03/09 06:25:27;;;;;;;23.77;11.37;;;;;;;3.29;44.94;101066.53;5389214;32;35060;-74
2022/03/09 06:28:29;;;;;;;22.27;11.03;;;;;;;3.64;42.77;101062.19;5381583;32;35608;-76
2022/03/09 06:31:32;;;;;;;21.33;10.73;;;;;;;4.02;41.97;101056.97;5379746;32;35107;-74
2022/03/09 06:34:45;;;;;;;;;;;;;;;3.36;43.45;101044.88;5591164;27;34902;-95
2022/03/09 06:38:02;;;;;;;24.83;11.23;;;;;;;3.16;43.43;101050.91;5386878;32;34924;-96
2022/03/09 06:41:15;;;;;;;26.47;11.90;;;;;;;3.35;43.00;101031.03;5361492;32;35479;-96
2022/03/09 06:44:39;;;;;;;25.40;11.23;;;;;;;3.16;43.73;101045.72;5343765;32;36284;-96
2022/03/09 06:47:52;;;;;;;27.05;11.80;;;;;;;3.89;42.61;101070.84;5335960;32;34871;-94
2022/03/09 06:51:04;;;;;;;31.93;14.37;;;;;;;4.73;40.93;101047.19;5343747;32;34603;-96
2022/03/09 06:54:15;;;;;;;33.13;12.47;;;;;;;3.66;42.69;101065.66;5374196;32;36044;-94
2022/03/09 06:57:28;;;;;;;27.13;12.13;;;;;;;4.13;41.75;101041.34;5355983;27;35946;-70
2022/03/09 07:00:30;;;;;;;33.47;13.98;;;;;;;4.80;40.50;101069.75;5344792;32;35374;-68
2022/03/09 07:03:33;;;;;;;34.38;13.38;;;;;;;5.39;39.33;101063.31;5348391;32;35294;-65
2022/03/09 07:06:37;;;;;;;27.62;12.98;;;;;;;4.64;40.90;101065.47;5344660;32;35691;-75
2022/03/09 07:09:39;;;;;;;28.07;12.40;;;;;;;4.95;40.55;101063.56;5337963;32;33788;-69
2022/03/09 07:12:45;;;;;;;37.10;13.97;;;;;;;5.68;39.08;101075.28;5330040;32;35426;-68
2022/03/09 07:15:48;;;;;;;27.43;13.33;;;;;;;6.13;38.16;101078.38;5330008;32;34197;-73
2022/03/09 07:18:50;;;;;;;28.63;13.13;;;;;;;5.69;39.23;101095.25;5356992;32;34959;-70
2022/03/09 07:21:54;;;;;;;26.27;12.07;;;;;;;5.54;39.29;101091.03;5327413;32;34044;-72
2022/03/09 07:24:58;;;;;;;25.12;12.40;;;;;;;5.66;38.79;101100.47;5338387;32;34022;-76
2022/03/09 07:28:00;;;;;;;26.40;11.77;;;;;;;6.72;37.11;101080.34;5325370;32;47155;-74
2022/03/09 07:31:03;;;;;;;24.30;11.57;;;;;;;6.78;36.35;101056.75;5339405;32;35429;-66
2022/03/09 07:34:06;;;;;;;26.08;12.68;;;;;;;6.16;37.86;101057.47;5349441;32;34240;-64
2022/03/09 07:37:08;;;;;;;25.10;12.20;;;;;;;6.78;36.77;101053.28;5345357;32;34113;-70
2022/03/09 07:40:11;;;;;;;24.40;12.97;;;;;;;6.80;36.67;101054.09;5339317;32;34081;-72
2022/03/09 07:43:13;;;;;;;29.73;12.53;;;;;;;6.32;38.07;101056.44;5326095;32;34474;-71
2022/03/09 07:46:19;;;;;;;25.20;12.50;;;;;;;6.58;37.32;101052.66;5367236;32;34376;-67
2022/03/09 07:49:22;;;;;;;26.03;12.90;;;;;;;8.20;34.31;101037.06;5352563;32;34873;-74
2022/03/09 07:52:24;;;;;;;27.57;15.70;;;;;;;7.40;35.52;101041.03;5361377;32;34488;-66
2022/03/09 07:55:27;;;;;;;28.20;10.97;;;;;;;7.14;35.58;101040.56;5364325;32;46754;-65
2022/03/09 07:58:31;;;;;;;21.57;10.53;;;;;;;6.53;36.80;101044.00;5361779;32;34124;-70
2022/03/09 08:01:34;;;;;;;22.37;11.00;;;;;;;6.94;35.80;101048.69;5359238;32;34606;-70
2022/03/09 08:04:37;;;;;;;22.80;10.75;;;;;;;7.99;34.05;101020.88;5351681;32;36149;-69
2022/03/09 08:07:43;;;;;;;20.67;11.27;;;;;;;6.59;36.95;101025.66;5376828;32;36488;-70
2022/03/09 08:10:45;;;;;;;22.85;11.32;;;;;;;7.39;35.66;101028.00;5347795;32;33977;-69
2022/03/09 08:13:47;;;;;;;24.67;12.00;;;;;;;6.09;38.28;101045.34;5364372;32;34377;-68
2022/03/09 08:16:50;;;;;;;20.67;11.07;;;;;;;6.57;37.06;101037.84;5371511;32;34068;-69
2022/03/09 08:19:52;;;;;;;22.23;11.37;;;;;;;7.47;35.76;101013.03;5347315;32;34228;-70
2022/03/09 08:22:54;;;;;;;23.03;10.53;;;;;;;6.59;37.47;101018.69;5363436;32;35736;-68
2022/03/09 08:25:56;;;;;;;20.77;11.43;;;;;;;7.37;35.94;101020.19;5362445;32;34118;-69
2022/03/09 08:28:59;;;;;;;24.97;12.73;;;;;;;7.66;35.64;101022.28;5369865;32;44123;-63
2022/03/09 08:32:01;;;;;;;32.73;13.63;;;;;;;8.23;35.17;101013.41;5329149;32;34181;-67
2022/03/09 08:35:06;;;;;;;23.90;11.90;;;;;;;7.39;36.16;101018.38;5359246;32;34259;-65
2022/03/09 08:38:08;;;;;;;25.83;12.73;;;;;;;7.86;35.88;101016.75;5365702;32;34308;-73
2022/03/09 08:41:10;;;;;;;23.83;12.13;;;;;;;7.21;36.85;101014.34;5355789;32;34434;-69
2022/03/09 08:44:13;;;;;;;24.30;12.53;;;;;;;8.45;34.68;100998.19;5341119;32;34042;-72
2022/03/09 08:47:15;;;;;;;24.20;11.40;;;;;;;7.21;36.58;101002.97;5367646;32;34040;-69
2022/03/09 08:50:18;;;;;;;22.17;11.30;;;;;;;7.63;36.15;101006.66;5364360;32;34282;-65
2022/03/09 08:53:34;;;;;;;17.17;9.23;;;;;;;8.68;34.67;100998.53;5371046;32;45006;-78
2022/03/09 08:56:37;;;;;;;18.17;9.77;;;;;;;9.58;32.15;101000.81;5366037;32;34156;-63
2022/03/09 08:59:39;;;;;;;17.70;9.00;;;;;;;8.92;33.57;100991.91;5366002;32;35279;-64
2022/03/09 09:02:42;;;;;;;14.80;8.63;;;;;;;8.50;34.01;100994.59;5358346;32;32767;-67
2022/03/09 09:05:45;;;;;;;16.27;8.07;;;;;;;8.70;33.95;100994.16;5374808;32;34816;-72
2022/03/09 09:08:47;;;;;;;18.05;8.95;;;;;;;9.71;31.94;100978.59;5364504;32;33986;-77
2022/03/09 09:11:50;;;;;;;17.53;9.40;;;;;;;8.60;33.93;100985.63;5361181;32;34160;-74
2022/03/09 09:14:53;;;;;;;14.87;8.50;;;;;;;8.27;34.43;100991.53;5373353;32;35169;-63
2022/03/09 09:18:02;;;;;;;15.53;9.03;;;;;;;9.60;32.63;100978.91;5367576;32;35354;-80
2022/03/09 09:21:26;;;;;;;16.93;8.37;;;;;;;9.99;31.97;100976.13;5364604;32;35257;-71
2022/03/09 09:24:28;;;;;;;17.40;8.47;;;;;;;10.23;30.94;100985.97;5354039;32;44802;-72
2022/03/09 09:27:30;;;;;;;15.33;8.30;;;;;;;9.67;32.27;100982.22;5369290;32;34117;-71
2022/03/09 09:30:48;;;;;;;18.27;8.83;;;;;;;8.76;33.90;100983.53;5377363;32;33944;-65
2022/03/09 09:33:50;;;;;;;15.77;8.87;;;;;;;9.29;32.81;100985.81;5343005;32;34013;-70
2022/03/09 09:36:53;;;;;;;17.17;9.03;;;;;;;8.88;33.80;100988.47;5374359;32;35533;-66
2022/03/09 09:39:55;;;;;;;19.27;8.50;;;;;;;8.90;33.83;100994.56;5353257;32;34022;-70
2022/03/09 09:42:57;;;;;;;19.77;9.47;;;;;;;8.92;34.25;100997.16;5353924;32;44334;-67
2022/03/09 09:46:00;;;;;;;21.83;9.03;;;;;;;9.72;32.70;100983.84;5344270;32;36617;-75
2022/03/09 09:49:02;;;;;;;17.40;9.20;;;;;;;9.67;33.00;100996.22;5365196;32;34455;-79
2022/03/09 09:52:05;;;;;;;22.47;10.50;;;;;;;9.26;33.59;100988.50;5354502;32;34009;-70
2022/03/09 09:55:08;;;;;;;21.23;9.93;;;;;;;10.14;32.50;100975.69;5346845;32;35383;-72
2022/03/09 09:58:10;;;;;;;21.45;10.18;;;;;;;9.78;33.04;100981.03;5364779;32;32877;-73
2022/03/09 10:01:13;;;;;;;19.90;10.07;;;;;;;11.87;29.79;100972.94;5349688;32;33473;-85
2022/03/09 10:04:15;;;;;;;16.60;9.33;;;;;;;10.30;31.68;100976.13;5343413;32;34604;-71
2022/03/09 10:07:18;;;;;;;16.25;9.85;;;;;;;11.33;30.07;100974.75;5361023;32;34927;-73
2022/03/09 10:10:21;;;;;;;17.03;8.63;;;;;;;11.92;29.70;100966.59;5358249;32;35092;-71
2022/03/09 10:13:27;;;;;;;17.07;8.40;;;;;;;11.09;29.89;100967.62;5373289;32;34106;-70
2022/03/09 10:16:31;;;;;;;17.50;8.27;;;;;;;13.65;26.52;100967.78;5362869;32;44648;-72
2022/03/09 10:19:36;;;;;;;18.23;8.83;;;;;;;14.43;25.67;100959.06;5364389;32;35653;-74
2022/03/09 10:22:46;;;;;;;16.73;8.73;;;;;;;14.30;25.61;100955.25;5369407;32;34174;-75
2022/03/09 10:26:01;;;;;;;17.17;8.40;;;;;;;14.13;25.39;100949.88;5356162;32;36938;-72
2022/03/09 10:29:09;;;;;;;16.23;8.50;;;;;;;13.67;25.92;100959.81;5346397;32;48089;-75
2022/03/09 10:32:11;;;;;;;17.83;9.13;;;;;;;14.74;24.73;100937.31;5368982;32;35628;-76
2022/03/09 10:35:16;;;;;;;19.60;9.97;;;;;;;15.74;23.44;100937.72;5372563;32;33991;-76
2022/03/09 10:38:24;;;;;;;17.60;8.30;;;;;;;18.02;21.25;100921.22;5366378;32;35395;-75
2022/03/09 10:41:33;;;;;;;15.10;9.10;;;;;;;16.85;22.46;100929.03;5375658;32;36053;-67
2022/03/09 10:44:45;;;;;;;20.47;9.63;;;;;;;16.21;23.25;100920.16;5332215;32;45092;-67
2022/03/09 10:47:50;;;;;;;16.47;9.60;;;;;;;15.72;24.40;100913.97;5370649;32;34193;-68
2022/03/09 10:50:54;;;;;;;15.30;8.97;;;;;;;18.22;21.25;100903.16;5376051;32;34030;-67
2022/03/09 10:54:08;;;;;;;15.97;8.73;;;;;;;17.29;22.18;100899.06;5350955;32;44579;-78
2022/03/09 10:57:13;;;;;;;14.07;9.00;;;;;;;17.71;21.43;100895.69;5363178;32;35664;-68
2022/03/09 11:00:16;;;;;;;35.67;10.30;;;;;;;16.95;22.42;100892.22;5356561;32;34413;-66
2022/03/09 11:03:25;;;;;;;18.62;9.50;;;;;;;16.40;22.78;100893.47;5354704;32;34271;-69
2022/03/09 11:06:28;;;;;;;16.60;10.00;;;;;;;17.31;22.30;100892.69;5363883;32;44415;-71
2022/03/09 11:09:31;;;;;;;15.13;9.50;;;;;;;14.21;25.97;100903.62;5361414;32;34165;-81
2022/03/09 11:12:33;;;;;;;16.52;10.00;;;;;;;14.01;26.30;100896.62;5363499;32;34029;-72
2022/03/09 11:15:43;;;;;;;20.00;9.07;;;;;;;15.21;25.03;100890.97;5363105;32;34138;-76
2022/03/09 11:18:46;;;;;;;16.77;9.77;;;;;;;14.51;26.25;100890.81;5358915;32;34011;-71
2022/03/09 11:21:51;;;;;;;15.47;8.93;;;;;;;13.24;27.86;100891.19;5366593;32;34128;-75
2022/03/09 11:24:56;;;;;;;17.07;9.33;;;;;;;13.39;28.04;100883.53;5354577;32;34013;-71
2022/03/09 11:27:58;;;;;;;16.37;9.60;;;;;;;14.51;26.27;100880.22;5378420;32;46452;-67
2022/03/09 11:31:07;;;;;;;15.95;9.77;;;;;;;12.97;28.69;100890.50;5364340;32;35369;-70
2022/03/09 11:34:42;;;;;;;17.70;10.97;;;;;;;12.18;29.96;100901.56;5376343;32;34025;-71
2022/03/09 11:37:44;;;;;;;20.57;10.97;;;;;;;12.32;30.17;100880.81;5375496;32;34892;-68
2022/03/09 11:41:19;;;;;;;19.73;9.67;;;;;;;12.19;30.13;100884.81;5363849;32;35653;-62
2022/03/09 11:44:21;;;;;;;15.93;9.37;;;;;;;13.57;27.81;100874.81;5346024;32;34103;-63
2022/03/09 11:47:24;;;;;;;18.58;9.65;;;;;;;14.16;27.30;100859.84;5363956;32;35807;-78
2022/03/09 11:50:28;;;;;;;18.47;9.53;;;;;;;14.45;27.02;100864.63;5355961;32;34354;-71
2022/03/09 11:53:42;;;;;;;17.80;10.20;;;;;;;11.78;30.93;100866.09;5341628;32;46776;-69
2022/03/09 11:56:51;;;;;;;22.40;8.90;;;;;;;12.90;29.49;100862.66;5363130;32;34123;-70
2022/03/09 12:00:02;;;;;;;14.30;8.63;;;;;;;14.81;26.73;100858.50;5373896;32;35185;-67
2022/03/09 12:03:05;;;;;;;15.57;8.20;;;;;;;13.75;27.48;100855.50;5365569;32;44487;-69
2022/03/09 12:06:42;;;;;;;14.87;8.00;;;;;;;14.23;27.34;100853.31;5375308;32;33205;-72
2022/03/09 12:09:57;;;;;;;17.73;8.40;;;;;;;14.49;26.11;100850.37;5374599;32;34056;-71
2022/03/09 12:13:19;;;;;;;16.42;7.95;;;;;;;15.38;25.71;100840.63;5361224;32;44662;-70
2022/03/09 12:16:23;;;;;;;19.60;8.60;;;;;;;16.65;23.63;100828.41;5376983;32;35199;-69
2022/03/09 12:19:26;;;;;;;14.53;7.70;;;;;;;15.50;24.96;100833.84;5365137;32;34265;-69
2022/03/09 12:22:56;;;;;;;14.97;7.50;;;;;;;14.56;26.67;100833.25;5369645;32;44366;-76
2022/03/09 12:25:58;;;;;;;16.03;7.13;;;;;;;15.22;25.46;100834.41;5375437;32;44439;-71
2022/03/09 12:29:01;;;;;;;13.90;7.67;;;;;;;13.92;26.95;100830.97;5353027;32;34024;-69
2022/03/09 12:32:13;;;;;;;12.27;7.33;;;;;;;16.22;24.31;100829.03;5376910;32;35257;-68
2022/03/09 12:35:16;;;;;;;19.52;8.40;;;;;;;15.75;24.64;100828.12;5366259;32;35354;-69
2022/03/09 12:38:19;;;;;;;17.27;8.63;;;;;;;15.86;25.08;100828.41;5371159;32;34153;-70
2022/03/09 12:41:32;;;;;;;16.53;8.13;;;;;;;16.29;24.32;100818.94;5346132;32;33775;-68
2022/03/09 12:44:36;;;;;;;17.02;8.00;;;;;;;15.37;24.95;100823.03;5332543;32;44396;-65
2022/03/09 12:47:38;;;;;;;15.67;8.57;;;;;;;13.91;27.42;100828.38;5379478;32;37212;-64
2022/03/09 12:50:40;;;;;;;14.83;8.30;;;;;;;14.39;27.02;100833.19;5355327;32;34383;-70
2022/03/09 12:53:42;;;;;;;12.20;7.43;;;;;;;14.87;26.59;100829.09;5379974;32;34985;-68
2022/03/09 12:56:46;;;;;;;12.97;6.53;;;;;;;13.64;27.90;100835.78;5365698;32;33974;-66
2022/03/09 13:00:03;;;;;;;13.80;7.40;;;;;;;13.82;27.29;100829.69;5367358;32;35549;-64
2022/03/09 13:03:09;;;;;;;15.33;7.20;;;;;;;14.11;27.26;100833.63;5365187;32;44587;-69
2022/03/09 13:06:29;;;;;;;14.33;7.00;;;;;;;14.87;26.18;100827.31;5367243;32;34718;-68
2022/03/09 13:09:31;;;;;;;13.57;7.47;;;;;;;14.17;27.37;100828.06;5376870;32;44336;-66
2022/03/09 13:12:34;;;;;;;13.20;7.40;;;;;;;12.73;29.32;100836.97;5366017;32;35226;-69
2022/03/09 13:15:41;;;;;;;15.07;6.53;;;;;;;12.42;29.64;100837.34;5368507;32;34661;-69
2022/03/09 13:18:44;;;;;;;11.80;6.27;;;;;;;14.29;26.89;100822.16;5376185;32;33417;-71
2022/03/09 13:21:48;;;;;;;13.10;7.27;;;;;;;13.82;27.78;100821.75;5338459;32;33860;-70
2022/03/09 13:25:03;;;;;;;13.77;7.10;;;;;;;12.13;30.25;100827.09;5375701;32;34131;-71
2022/03/09 13:28:06;;;;;;;12.30;6.83;;;;;;;13.77;28.00;100814.03;5365637;32;45783;-77
2022/03/09 13:31:11;;;;;;;12.80;6.20;;;;;;;13.59;27.97;100814.00;5375190;32;35507;-77
2022/03/09 13:34:18;;;;;;;11.02;6.25;;;;;;;13.18;28.37;100806.94;5369994;32;35280;-68
2022/03/09 13:37:21;;;;;;;12.43;6.47;;;;;;;13.21;28.70;100803.37;5367383;32;35128;-68
2022/03/09 13:40:23;;;;;;;14.35;6.62;;;;;;;14.16;27.42;100793.75;5378841;32;34221;-76
2022/03/09 13:43:29;;;;;;;12.97;6.00;;;;;;;14.28;26.82;100794.03;5338544;32;44385;-71
2022/03/09 13:46:32;;;;;;;13.23;6.03;;;;;;;13.79;27.34;100801.62;5360978;32;32661;-70
2022/03/09 13:49:49;;;;;;;14.47;7.17;;;;;;;12.43;29.20;100804.81;5362091;32;34038;-69
2022/03/09 13:53:07;;;;;;;14.53;7.13;;;;;;;13.40;28.63;100796.34;5366286;32;33941;-67
2022/03/09 13:56:20;;;;;;;16.93;6.70;;;;;;;13.40;29.06;100788.44;5373450;32;36079;-68
2022/03/09 13:59:41;;;;;;;13.73;6.28;;;;;;;13.57;28.47;100792.94;5362166;32;34994;-73
2022/03/09 14:02:44;;;;;;;14.47;6.43;;;;;;;12.86;29.53;100786.34;5361507;32;34111;-72
2022/03/09 14:05:51;;;;;;;14.37;5.77;;;;;;;12.62;29.95;100793.50;5352959;32;33109;-69
2022/03/09 14:08:55;;;;;;;12.23;6.07;;;;;;;12.48;30.02;100797.56;5362014;32;34062;-68
2022/03/09 14:11:57;;;;;;;;;;;;;;;11.78;31.14;100795.00;5374019;32;44639;-70
2022/03/09 14:14:59;;;;;;;11.40;5.27;;;;;;;11.64;31.63;100792.87;5359213;32;34003;-74